createdAt,value
2022-09-12T00:00:35.567Z,60.23
2022-09-12T00:03:02.982Z,59.94
2022-09-12T00:05:30.966Z,59.91
2022-09-12T00:07:57.442Z,60.20
2022-09-12T00:10:23.880Z,60.24
2022-09-12T00:12:50.397Z,59.85
2022-09-12T00:15:16.900Z,60.12
2022-09-12T00:17:43.646Z,60.35
2022-09-12T00:20:10.989Z,60.50
2022-09-12T00:22:38.629Z,60.01
2022-09-12T00:25:05.592Z,60.35
2022-09-12T00:27:32.110Z,60.14
2022-09-12T00:29:58.551Z,60.54
2022-09-12T00:32:25.368Z,60.37
2022-09-12T00:34:51.813Z,60.35
2022-09-12T00:37:18.311Z,60.64
2022-09-12T00:39:44.804Z,60.71
2022-09-12T00:42:11.958Z,60.40
2022-09-12T00:44:38.491Z,60.57
2022-09-12T00:47:04.918Z,59.79
2022-09-12T00:49:49.653Z,60.01
2022-09-12T00:52:42.220Z,59.98
2022-09-12T00:55:24.858Z,59.77
2022-09-12T00:57:54.528Z,59.46
2022-09-12T01:00:23.630Z,59.60
2022-09-12T01:02:55.986Z,59.43
2022-09-12T01:05:23.601Z,59.54
2022-09-12T01:07:50.903Z,59.99
2022-09-12T01:10:17.994Z,59.78
2022-09-12T01:12:45.551Z,59.29
2022-09-12T01:15:12.395Z,58.98
2022-09-12T01:18:24.048Z,59.01
2022-09-12T01:21:00.054Z,58.96
2022-09-12T01:23:50.425Z,59.36
2022-09-12T01:26:58.425Z,58.99
2022-09-12T01:29:32.988Z,58.67
2022-09-12T01:32:33.583Z,58.53
2022-09-12T01:35:22.870Z,58.61
2022-09-12T01:38:25.505Z,58.59
2022-09-12T01:41:27.475Z,57.99
2022-09-12T01:44:18.526Z,58.30
2022-09-12T01:47:03.299Z,58.36
2022-09-12T01:49:34.124Z,58.74
2022-09-12T01:52:08.869Z,58.89
2022-09-12T01:54:40.348Z,58.91
2022-09-12T01:57:12.558Z,59.08
2022-09-12T01:59:44.361Z,58.46
2022-09-12T02:02:33.002Z,58.00
2022-09-12T02:05:09.870Z,57.68
2022-09-12T02:07:44.343Z,57.91
2022-09-12T02:10:15.258Z,57.65
2022-09-12T02:12:52.538Z,57.60
2022-09-12T02:15:21.193Z,57.88
2022-09-12T02:17:50.168Z,58.05
2022-09-12T02:20:37.451Z,58.06
2022-09-12T02:23:12.680Z,57.86
2022-09-12T02:25:43.017Z,57.63
2022-09-12T02:28:17.856Z,57.83
2022-09-12T02:31:09.148Z,57.70
2022-09-12T02:33:47.047Z,57.64
2022-09-12T02:36:52.141Z,57.56
2022-09-12T02:39:20.848Z,57.51
2022-09-12T02:41:50.421Z,57.23
2022-09-12T02:44:16.875Z,57.19
2022-09-12T02:46:46.794Z,57.10
2022-09-12T02:49:13.935Z,57.02
2022-09-12T02:51:40.480Z,57.03
2022-09-12T02:54:07.748Z,56.79
2022-09-12T02:56:34.247Z,56.58
2022-09-12T02:59:07.105Z,56.68
2022-09-12T03:01:49.154Z,56.32
2022-09-12T03:04:37.619Z,56.30
2022-09-12T03:07:42.754Z,56.47
2022-09-12T03:10:19.740Z,56.38
2022-09-12T03:12:59.416Z,56.65
2022-09-12T03:15:36.326Z,56.69
2022-09-12T03:18:29.132Z,56.52
2022-09-12T03:21:01.950Z,56.32
2022-09-12T03:23:38.838Z,56.07
2022-09-12T03:26:54.863Z,56.03
2022-09-12T03:29:22.028Z,55.63
2022-09-12T03:31:53.618Z,56.17
2022-09-12T03:34:21.481Z,56.14
2022-09-12T03:36:48.945Z,57.07
2022-09-12T03:39:16.193Z,56.37
2022-09-12T03:41:42.810Z,56.14
2022-09-12T03:44:09.362Z,56.16
2022-09-12T03:46:36.068Z,55.97
2022-09-12T03:49:02.657Z,56.01
2022-09-12T03:51:29.337Z,56.80
2022-09-12T03:53:55.878Z,56.83
2022-09-12T03:56:22.532Z,56.83
2022-09-12T03:58:48.939Z,57.40
2022-09-12T04:01:17.558Z,57.68
2022-09-12T04:03:45.402Z,57.49
2022-09-12T04:06:14.571Z,57.24
2022-09-12T04:08:41.935Z,56.64
2022-09-12T04:11:11.270Z,56.72
2022-09-12T04:13:39.016Z,56.77
2022-09-12T04:16:07.341Z,56.69
2022-09-12T04:18:34.583Z,56.15
2022-09-12T04:21:16.472Z,56.34
2022-09-12T04:23:43.133Z,56.53
2022-09-12T04:26:10.337Z,56.60
2022-09-12T04:28:38.395Z,55.94
2022-09-12T04:31:07.602Z,56.01
2022-09-12T04:33:35.425Z,55.99
2022-09-12T04:36:07.517Z,56.08
2022-09-12T04:38:35.507Z,56.05
2022-09-12T04:41:10.719Z,55.85
2022-09-12T04:43:37.146Z,55.94
2022-09-12T04:46:08.344Z,56.28
2022-09-12T04:48:34.916Z,56.44
2022-09-12T04:51:18.602Z,56.39
2022-09-12T04:53:49.293Z,56.32
2022-09-12T04:56:16.025Z,56.77
2022-09-12T04:58:42.578Z,56.16
2022-09-12T05:01:11.408Z,56.40
2022-09-12T05:03:39.521Z,56.43
2022-09-12T05:06:11.970Z,56.73
2022-09-12T05:08:38.500Z,56.52
2022-09-12T05:11:07.399Z,56.04
2022-09-12T05:13:34.441Z,56.10
2022-09-12T05:16:02.535Z,56.00
2022-09-12T05:18:31.514Z,56.11
2022-09-12T05:21:00.170Z,56.48
2022-09-12T05:23:27.712Z,56.26
2022-09-12T05:25:55.850Z,55.65
2022-09-12T05:28:24.642Z,56.12
2022-09-12T05:31:21.550Z,55.85
2022-09-12T05:33:49.573Z,56.25
2022-09-12T05:36:22.028Z,56.35
2022-09-12T05:38:48.676Z,56.29
2022-09-12T05:41:26.893Z,56.29
2022-09-12T05:43:55.148Z,56.00
2022-09-12T05:46:24.170Z,55.86
2022-09-12T05:48:55.638Z,55.95
2022-09-12T05:51:25.437Z,56.05
2022-09-12T05:53:57.355Z,56.06
2022-09-12T05:56:26.190Z,56.11
2022-09-12T05:59:01.848Z,55.75
2022-09-12T06:01:30.157Z,55.78
2022-09-12T06:04:00.573Z,55.83
2022-09-12T06:06:28.127Z,55.62
2022-09-12T06:08:58.351Z,55.86
2022-09-12T06:11:27.361Z,55.68
2022-09-12T06:13:54.127Z,55.54
2022-09-12T06:16:22.570Z,55.85
2022-09-12T06:18:51.824Z,55.89
2022-09-12T06:21:18.762Z,55.76
2022-09-12T06:23:48.154Z,55.77
2022-09-12T06:26:16.637Z,55.48
2022-09-12T06:28:44.970Z,55.55
2022-09-12T06:31:20.315Z,55.84
2022-09-12T06:33:52.118Z,55.24
2022-09-12T06:36:22.662Z,55.04
2022-09-12T06:38:57.102Z,54.94
2022-09-12T06:41:24.403Z,54.73
2022-09-12T06:43:50.912Z,54.41
2022-09-12T06:46:17.444Z,54.40
2022-09-12T06:48:44.017Z,53.65
2022-09-12T06:51:14.861Z,53.25
2022-09-12T06:53:42.240Z,53.19
2022-09-12T06:56:19.169Z,52.41
2022-09-12T06:58:47.405Z,52.48
2022-09-12T07:01:22.226Z,51.49
2022-09-12T07:03:53.939Z,50.94
2022-09-12T07:06:31.453Z,50.32
2022-09-12T07:09:02.405Z,50.12
2022-09-12T07:11:34.119Z,49.59
2022-09-12T07:14:02.689Z,49.11
2022-09-12T07:16:30.433Z,48.72
2022-09-12T07:19:01.979Z,48.63
2022-09-12T07:21:29.485Z,49.34
2022-09-12T07:23:57.819Z,49.29
2022-09-12T07:26:26.895Z,49.20
2022-09-12T07:28:54.607Z,48.74
2022-09-12T07:31:25.635Z,48.67
2022-09-12T07:33:54.599Z,48.37
2022-09-12T07:36:23.709Z,48.53
2022-09-12T07:38:57.728Z,48.27
2022-09-12T07:41:33.500Z,48.08
2022-09-12T07:44:01.237Z,47.30
2022-09-12T07:46:29.508Z,46.72
2022-09-12T07:48:58.145Z,46.04
2022-09-12T07:51:26.438Z,44.95
2022-09-12T07:53:53.264Z,43.99
2022-09-12T07:56:21.108Z,43.43
2022-09-12T07:58:48.357Z,43.16
2022-09-12T08:01:17.510Z,42.51
2022-09-12T08:03:45.973Z,42.35
2022-09-12T08:06:15.319Z,42.17
2022-09-12T08:08:42.384Z,42.12
2022-09-12T08:11:13.862Z,42.48
2022-09-12T08:13:41.577Z,42.77
2022-09-12T08:16:12.397Z,42.54
2022-09-12T08:18:39.596Z,43.95
2022-09-12T08:21:08.255Z,43.20
2022-09-12T08:23:34.809Z,43.35
2022-09-12T08:26:06.100Z,43.06
2022-09-12T08:28:34.180Z,43.19
2022-09-12T08:31:21.824Z,44.03
2022-09-12T08:33:48.475Z,43.40
2022-09-12T08:36:15.946Z,43.10
2022-09-12T08:38:44.831Z,42.53
2022-09-12T08:41:28.039Z,42.14
2022-09-12T08:44:26.548Z,41.31
2022-09-12T08:47:17.244Z,41.18
2022-09-12T08:50:01.118Z,41.07
2022-09-12T08:52:39.839Z,41.59
2022-09-12T08:55:18.160Z,40.24
2022-09-12T08:57:47.777Z,41.94
2022-09-12T09:00:15.725Z,40.04
2022-09-12T09:02:54.372Z,41.08
2022-09-12T09:05:52.010Z,40.17
2022-09-12T09:08:50.600Z,41.72
2022-09-12T09:12:02.318Z,40.67
2022-09-12T09:15:01.790Z,42.47
2022-09-12T09:17:43.682Z,39.95
2022-09-12T09:20:36.309Z,38.79
2022-09-12T09:23:17.506Z,38.12
2022-09-12T09:26:00.505Z,37.18
2022-09-12T09:28:57.173Z,34.99
2022-09-12T09:31:28.911Z,33.34
2022-09-12T09:33:55.640Z,31.69
2022-09-12T09:36:25.184Z,27.91
2022-09-12T09:39:05.747Z,26.12
2022-09-12T09:41:41.765Z,24.57
2022-09-12T09:46:39.769Z,28.08
2022-09-12T09:49:07.165Z,26.15
2022-09-12T09:51:39.689Z,25.85
2022-09-12T09:54:22.555Z,25.87
2022-09-12T09:56:49.191Z,23.97
2022-09-12T09:59:19.687Z,23.48
2022-09-12T10:01:52.792Z,23.69
2022-09-12T10:04:22.382Z,23.29
2022-09-12T10:06:52.172Z,21.50
2022-09-12T10:09:20.180Z,21.12
2022-09-12T10:11:47.800Z,17.07
2022-09-12T10:14:30.813Z,15.60
2022-09-12T10:16:58.291Z,11.96
2022-09-12T10:19:37.169Z,10.87
2022-09-12T10:22:04.868Z,12.62
2022-09-12T10:24:37.130Z,16.48
2022-09-12T10:27:12.650Z,11.75
2022-09-12T10:29:59.304Z,11.78
2022-09-12T10:32:30.695Z,11.11
2022-09-12T10:35:03.409Z,12.11
2022-09-12T10:37:35.507Z,12.20
2022-09-12T10:40:03.924Z,13.96
2022-09-12T10:42:49.370Z,16.47
2022-09-12T10:45:24.978Z,17.49
2022-09-12T10:47:53.652Z,16.95
2022-09-12T10:50:31.673Z,15.92
2022-09-12T10:53:19.616Z,14.72
2022-09-12T10:56:10.445Z,12.66
2022-09-12T10:58:43.199Z,14.91
2022-09-12T11:01:24.867Z,14.94
2022-09-12T11:04:20.728Z,13.74
2022-09-12T11:06:58.788Z,13.50
2022-09-12T11:10:01.642Z,16.86
2022-09-12T11:13:13.148Z,12.33
2022-09-12T11:16:02.464Z,12.13
2022-09-12T11:18:53.856Z,11.40
2022-09-12T11:21:48.156Z,9.68
2022-09-12T11:24:28.296Z,8.75
2022-09-12T11:27:09.923Z,13.83
2022-09-12T11:29:36.375Z,10.26
2022-09-12T11:32:17.590Z,10.19
2022-09-12T11:34:55.997Z,11.19
2022-09-12T11:37:56.526Z,10.41
2022-09-12T11:40:30.409Z,11.08
2022-09-12T11:43:07.750Z,11.66
2022-09-12T11:45:45.088Z,10.60
2022-09-12T11:48:21.472Z,11.64
2022-09-12T11:50:48.019Z,11.15
2022-09-12T11:53:23.013Z,10.05
2022-09-12T11:55:55.425Z,10.76
2022-09-12T11:58:24.537Z,10.80
2022-09-12T12:00:54.590Z,9.87
2022-09-12T12:03:27.500Z,11.04
2022-09-12T12:06:19.197Z,12.06
2022-09-12T12:08:46.743Z,13.42
2022-09-12T12:11:16.482Z,11.64
2022-09-12T12:13:49.870Z,12.69
2022-09-12T12:16:32.257Z,16.87
2022-09-12T12:19:07.591Z,19.58
2022-09-12T12:21:41.338Z,24.48
2022-09-12T12:24:07.726Z,26.12
2022-09-12T12:26:40.589Z,27.82
2022-09-12T12:29:21.934Z,28.80
2022-09-12T12:32:11.636Z,30.86
2022-09-12T12:34:46.000Z,30.13
2022-09-12T12:37:21.548Z,30.98
2022-09-12T12:39:48.311Z,31.52
2022-09-12T12:42:35.888Z,31.07
2022-09-12T12:45:04.169Z,30.39
2022-09-12T12:47:40.861Z,30.69
2022-09-12T12:50:10.278Z,30.23
2022-09-12T12:52:48.759Z,29.02
2022-09-12T12:55:38.619Z,32.14
2022-09-12T12:58:32.956Z,30.96
2022-09-12T13:01:07.060Z,30.07
2022-09-12T13:03:34.186Z,30.54
2022-09-12T13:06:03.227Z,30.30
2022-09-12T13:08:32.456Z,29.31
2022-09-12T13:11:11.399Z,29.94
2022-09-12T13:13:41.565Z,28.97
2022-09-12T13:16:10.681Z,31.53
2022-09-12T13:18:46.578Z,30.21
2022-09-12T13:21:17.766Z,29.65
2022-09-12T13:23:45.099Z,29.21
2022-09-12T13:26:22.906Z,29.06
2022-09-12T13:28:50.334Z,28.79
2022-09-12T13:31:24.146Z,29.56
2022-09-12T13:33:57.530Z,28.85
2022-09-12T13:36:33.898Z,28.93
2022-09-12T13:39:16.382Z,28.31
2022-09-12T13:42:20.064Z,27.41
2022-09-12T13:45:04.843Z,26.70
2022-09-12T13:47:44.383Z,26.32
2022-09-12T13:50:21.037Z,28.38
2022-09-12T13:52:52.061Z,27.56
2022-09-12T13:55:56.180Z,29.94
2022-09-12T13:58:28.417Z,28.41
2022-09-12T14:01:07.106Z,26.83
2022-09-12T14:03:59.151Z,25.70
2022-09-12T14:06:27.730Z,26.14
2022-09-12T14:08:57.410Z,27.35
2022-09-12T14:11:26.996Z,26.21
2022-09-12T14:13:55.179Z,26.10
2022-09-12T14:16:23.755Z,27.44
2022-09-12T14:18:51.864Z,30.72
2022-09-12T14:21:34.682Z,29.00
2022-09-12T14:24:02.449Z,29.50
2022-09-12T14:26:32.392Z,27.33
2022-09-12T14:28:59.650Z,26.39
2022-09-12T14:31:31.669Z,27.47
2022-09-12T14:34:15.074Z,26.23
2022-09-12T14:36:55.946Z,26.96
2022-09-12T14:39:28.618Z,27.52
2022-09-12T14:42:07.473Z,26.95
2022-09-12T14:44:35.627Z,26.54
2022-09-12T14:47:37.186Z,27.77
2022-09-12T14:50:06.259Z,27.38
2022-09-12T14:52:35.034Z,27.80
2022-09-12T14:55:21.142Z,29.15
2022-09-12T14:57:50.006Z,28.19
2022-09-12T15:00:20.857Z,28.97
2022-09-12T15:02:48.910Z,28.78
2022-09-12T15:05:21.709Z,29.25
2022-09-12T15:07:51.249Z,29.62
2022-09-12T15:10:35.115Z,29.58
2022-09-12T15:13:16.876Z,29.16
2022-09-12T15:15:54.370Z,29.41
2022-09-12T15:18:22.195Z,28.75
2022-09-12T15:20:51.156Z,28.98
2022-09-12T15:23:40.217Z,29.08
2022-09-12T15:26:08.037Z,30.67
2022-09-12T15:28:34.632Z,28.80
2022-09-12T15:31:16.127Z,29.16
2022-09-12T15:33:42.784Z,29.05
2022-09-12T15:36:14.595Z,28.86
2022-09-12T15:38:41.210Z,30.36
2022-09-12T15:41:17.486Z,29.46
2022-09-12T15:43:45.552Z,29.27
2022-09-12T15:46:13.744Z,29.26
2022-09-12T15:48:40.611Z,29.54
2022-09-12T15:51:19.674Z,28.75
2022-09-12T15:53:47.457Z,30.27
2022-09-12T15:56:15.979Z,28.96
2022-09-12T15:58:57.110Z,29.33
2022-09-12T16:01:24.593Z,29.04
2022-09-12T16:03:51.361Z,30.78
2022-09-12T16:06:17.852Z,30.98
2022-09-12T16:08:44.535Z,30.96
2022-09-12T16:11:16.368Z,30.40
2022-09-12T16:13:42.814Z,31.16
2022-09-12T16:16:09.562Z,31.35
2022-09-12T16:18:36.193Z,32.39
2022-09-12T16:21:02.711Z,32.36
2022-09-12T16:23:29.158Z,30.58
2022-09-12T16:25:59.951Z,30.80
2022-09-12T16:28:27.491Z,31.54
2022-09-12T16:30:58.037Z,32.39
2022-09-12T16:33:25.469Z,33.08
2022-09-12T16:35:54.978Z,33.07
2022-09-12T16:38:22.465Z,35.86
2022-09-12T16:40:48.998Z,34.79
2022-09-12T16:43:17.294Z,35.65
2022-09-12T16:45:44.484Z,34.54
2022-09-12T16:48:11.266Z,35.10
2022-09-12T16:50:37.709Z,37.02
2022-09-12T16:53:04.434Z,34.69
2022-09-12T16:55:32.478Z,35.05
2022-09-12T16:57:59.408Z,34.34
2022-09-12T17:00:25.867Z,35.09
2022-09-12T17:02:52.601Z,34.08
2022-09-12T17:05:19.162Z,36.67
2022-09-12T17:07:45.670Z,36.32
2022-09-12T17:10:12.291Z,36.70
2022-09-12T17:12:38.889Z,36.68
2022-09-12T17:15:05.897Z,35.58
2022-09-12T17:17:32.354Z,35.79
2022-09-12T17:19:59.145Z,35.74
2022-09-12T17:22:25.609Z,36.82
2022-09-12T17:24:52.311Z,36.98
2022-09-12T17:27:18.741Z,36.57
2022-09-12T17:29:45.544Z,38.47
2022-09-12T17:32:15.616Z,36.52
2022-09-12T17:34:43.959Z,36.38
2022-09-12T17:37:10.478Z,36.10
2022-09-12T17:39:37.001Z,37.67
2022-09-12T17:42:03.711Z,38.60
2022-09-12T17:44:30.290Z,38.57
2022-09-12T17:46:56.758Z,39.32
2022-09-12T17:49:23.375Z,39.75
2022-09-12T17:51:51.118Z,40.29
2022-09-12T17:54:20.795Z,41.39
2022-09-12T17:56:49.781Z,41.66
2022-09-12T17:59:18.850Z,41.33
2022-09-12T18:02:05.070Z,41.77
2022-09-12T18:04:31.761Z,41.60
2022-09-12T18:07:00.446Z,42.06
2022-09-12T18:09:27.930Z,41.90
2022-09-12T18:11:54.817Z,42.04
2022-09-12T18:14:22.019Z,42.26
2022-09-12T18:16:48.554Z,41.87
2022-09-12T18:19:15.783Z,43.22
2022-09-12T18:21:42.238Z,43.40
2022-09-12T18:24:09.621Z,43.07
2022-09-12T18:26:36.121Z,43.31
2022-09-12T18:29:02.758Z,43.53
2022-09-12T18:31:30.247Z,43.68
2022-09-12T18:33:59.795Z,44.87
2022-09-12T18:36:27.042Z,44.65
2022-09-12T18:38:53.937Z,44.98
2022-09-12T18:41:22.223Z,44.59
2022-09-12T18:43:49.426Z,45.43
2022-09-12T18:46:18.449Z,45.88
2022-09-12T18:48:45.900Z,45.48
2022-09-12T18:51:20.546Z,45.84
2022-09-12T18:53:52.905Z,46.28
2022-09-12T18:56:20.141Z,46.68
2022-09-12T18:58:53.496Z,46.44
2022-09-12T19:01:24.697Z,47.27
2022-09-12T19:03:52.182Z,47.29
2022-09-12T19:06:21.413Z,47.84
2022-09-12T19:08:48.852Z,47.56
2022-09-12T19:11:17.341Z,47.71
2022-09-12T19:13:45.578Z,47.63
2022-09-12T19:16:15.625Z,47.25
2022-09-12T19:18:42.809Z,47.35
2022-09-12T19:21:22.183Z,46.99
2022-09-12T19:23:49.624Z,47.60
2022-09-12T19:26:17.032Z,46.45
2022-09-12T19:28:43.931Z,46.69
2022-09-12T19:31:12.198Z,46.98
2022-09-12T19:33:39.342Z,46.77
2022-09-12T19:36:21.966Z,47.24
2022-09-12T19:38:54.759Z,47.17
2022-09-12T19:41:21.453Z,47.49
2022-09-12T19:43:48.198Z,48.00
2022-09-12T19:46:19.925Z,47.93
2022-09-12T19:48:47.257Z,48.04
2022-09-12T19:51:14.392Z,47.45
2022-09-12T19:53:42.214Z,47.38
2022-09-12T19:56:10.044Z,47.82
2022-09-12T19:58:38.930Z,48.16
2022-09-12T20:01:08.710Z,47.99
2022-09-12T20:03:35.236Z,47.93
2022-09-12T20:06:03.697Z,48.30
2022-09-12T20:08:30.184Z,48.56
2022-09-12T20:10:57.233Z,48.40
2022-09-12T20:13:24.279Z,48.71
2022-09-12T20:15:50.962Z,48.29
2022-09-12T20:18:17.671Z,48.56
2022-09-12T20:20:44.258Z,48.15
2022-09-12T20:23:10.793Z,48.23
2022-09-12T20:25:37.749Z,48.49
2022-09-12T20:28:04.221Z,48.03
2022-09-12T20:30:31.078Z,48.28
2022-09-12T20:32:57.629Z,48.04
2022-09-12T20:35:24.135Z,48.01
2022-09-12T20:37:53.148Z,48.65
2022-09-12T20:40:19.694Z,48.82
2022-09-12T20:42:47.069Z,49.38
2022-09-12T20:45:13.571Z,49.25
2022-09-12T20:47:40.465Z,49.50
2022-09-12T20:50:07.204Z,49.52
2022-09-12T20:52:33.667Z,49.72
2022-09-12T20:55:00.135Z,49.20
2022-09-12T20:57:28.486Z,49.08
2022-09-12T20:59:55.185Z,49.00
2022-09-12T21:02:24.357Z,49.34
2022-09-12T21:04:51.147Z,48.96
2022-09-12T21:07:17.648Z,49.13
2022-09-12T21:09:44.472Z,49.18
2022-09-12T21:12:11.076Z,48.72
2022-09-12T21:14:37.649Z,48.80
2022-09-12T21:17:05.253Z,48.64
2022-09-12T21:19:31.734Z,48.57
2022-09-12T21:21:58.281Z,49.37
2022-09-12T21:24:24.773Z,49.52
2022-09-12T21:26:51.265Z,49.56
2022-09-12T21:29:17.823Z,49.47
2022-09-12T21:31:44.561Z,49.57
2022-09-12T21:34:11.158Z,49.76
2022-09-12T21:36:37.753Z,49.67
2022-09-12T21:39:04.873Z,49.91
2022-09-12T21:41:31.369Z,49.55
2022-09-12T21:43:57.877Z,49.66
2022-09-12T21:46:24.538Z,48.66
2022-09-12T21:48:51.137Z,49.14
2022-09-12T21:51:18.067Z,47.90
2022-09-12T21:53:45.394Z,47.62
2022-09-12T21:56:12.009Z,46.68
2022-09-12T21:58:39.229Z,47.12
2022-09-12T22:01:08.586Z,46.41
2022-09-12T22:03:35.334Z,46.95
2022-09-12T22:06:04.424Z,47.43
2022-09-12T22:08:32.406Z,46.70
2022-09-12T22:11:00.798Z,46.05
2022-09-12T22:13:27.864Z,46.63
2022-09-12T22:15:54.455Z,46.21
2022-09-12T22:18:21.002Z,46.18
2022-09-12T22:20:47.614Z,46.29
2022-09-12T22:23:32.576Z,46.15
2022-09-12T22:26:01.282Z,46.35
2022-09-12T22:28:29.730Z,47.20
2022-09-12T22:30:57.312Z,47.39
2022-09-12T22:33:23.855Z,47.06
2022-09-12T22:35:50.395Z,46.98
2022-09-12T22:38:16.905Z,47.53
2022-09-12T22:40:43.842Z,47.76
2022-09-12T22:43:10.523Z,46.49
2022-09-12T22:45:40.610Z,47.67
2022-09-12T22:48:09.210Z,47.68
2022-09-12T22:50:35.970Z,47.31
2022-09-12T22:53:02.552Z,47.76
2022-09-12T22:55:29.073Z,47.45
2022-09-12T22:57:55.759Z,48.03
2022-09-12T23:00:23.570Z,47.95
2022-09-12T23:02:50.280Z,48.40
2022-09-12T23:05:16.904Z,48.20
2022-09-12T23:07:43.447Z,48.61
2022-09-12T23:10:10.628Z,48.89
2022-09-12T23:12:37.266Z,49.19
2022-09-12T23:15:04.282Z,49.16
2022-09-12T23:17:30.803Z,49.01
2022-09-12T23:19:57.326Z,49.46
2022-09-12T23:22:23.920Z,49.36
2022-09-12T23:24:50.373Z,49.92
2022-09-12T23:27:16.907Z,49.34
2022-09-12T23:29:43.410Z,49.57
2022-09-12T23:32:10.495Z,49.44
2022-09-12T23:34:37.155Z,49.57
2022-09-12T23:37:03.686Z,50.08
2022-09-12T23:39:31.771Z,49.60
2022-09-12T23:41:58.247Z,48.56
2022-09-12T23:44:24.700Z,48.97
2022-09-12T23:46:51.160Z,48.67
2022-09-12T23:49:17.712Z,49.03
2022-09-12T23:51:44.718Z,48.22
2022-09-12T23:54:11.302Z,48.38
2022-09-12T23:56:38.099Z,49.65
2022-09-12T23:59:05.203Z,49.79
